createdAt,value
2023-02-13T00:02:18.569Z,95592.47
2023-02-13T00:07:20.489Z,95600.81
2023-02-13T00:12:22.152Z,95585.38
2023-02-13T00:17:25.055Z,95591.00
2023-02-13T00:22:26.669Z,95590.56
2023-02-13T00:27:28.222Z,95583.63
2023-02-13T00:32:31.168Z,95580.91
2023-02-13T00:37:33.519Z,95579.63
2023-02-13T00:42:35.120Z,95587.06
2023-02-13T00:47:37.988Z,95592.09
2023-02-13T00:52:39.545Z,95586.81
2023-02-13T00:57:41.102Z,95587.91
2023-02-13T01:02:44.018Z,95587.25
2023-02-13T01:07:46.616Z,95590.13
2023-02-13T01:12:51.335Z,95584.91
2023-02-13T01:17:54.846Z,95580.56
2023-02-13T01:22:57.635Z,95586.50
2023-02-13T01:27:59.284Z,95584.31
2023-02-13T01:33:02.256Z,95582.59
2023-02-13T01:38:03.742Z,95582.47
2023-02-13T01:43:09.626Z,95569.44
2023-02-13T01:48:15.555Z,95556.81
2023-02-13T01:53:21.386Z,95547.34
2023-02-13T01:58:26.950Z,95559.88
2023-02-13T02:03:35.532Z,95554.69
2023-02-13T02:08:37.368Z,95551.59
2023-02-13T02:13:39.274Z,95549.66
2023-02-13T02:18:42.184Z,95559.78
2023-02-13T02:24:28.373Z,95555.06
2023-02-13T02:30:18.588Z,95561.38
2023-02-13T02:35:31.292Z,95545.09
2023-02-13T02:40:42.631Z,95538.75
2023-02-13T02:45:52.510Z,95531.81
2023-02-13T02:51:02.743Z,95529.38
2023-02-13T02:56:12.607Z,95536.56
2023-02-13T03:01:18.268Z,95529.94
2023-02-13T03:06:26.343Z,95537.44
2023-02-13T03:11:28.113Z,95535.34
2023-02-13T03:16:30.031Z,95544.47
2023-02-13T03:21:45.047Z,95547.84
2023-02-13T03:26:59.582Z,95555.53
2023-02-13T03:32:10.390Z,95564.06
2023-02-13T03:37:15.945Z,95564.59
2023-02-13T03:42:25.753Z,95572.22
2023-02-13T03:47:27.491Z,95579.03
2023-02-13T03:52:36.168Z,95581.41
2023-02-13T03:57:40.810Z,95593.06
2023-02-13T04:02:51.775Z,95593.97
2023-02-13T04:07:54.746Z,95605.78
2023-02-13T04:13:03.611Z,95593.22
2023-02-13T04:18:11.468Z,95596.59
2023-02-13T04:23:15.316Z,95601.13
2023-02-13T04:28:17.050Z,95601.34
2023-02-13T04:33:18.726Z,95591.25
2023-02-13T04:38:21.571Z,95593.91
2023-02-13T04:43:23.168Z,95588.47
2023-02-13T04:48:24.735Z,95587.75
2023-02-13T04:53:27.803Z,95581.63
2023-02-13T04:58:29.422Z,95574.19
2023-02-13T05:03:30.989Z,95582.44
2023-02-13T05:08:34.088Z,95575.59
2023-02-13T05:13:38.190Z,95581.63
2023-02-13T05:18:39.768Z,95567.69
2023-02-13T05:23:42.745Z,95561.63
2023-02-13T05:28:44.324Z,95573.00
2023-02-13T05:33:45.901Z,95578.19
2023-02-13T05:38:48.871Z,95579.47
2023-02-13T05:43:50.409Z,95596.69
2023-02-13T05:48:52.276Z,95596.16
2023-02-13T05:53:55.186Z,95586.53
2023-02-13T05:58:57.464Z,95596.28
2023-02-13T06:04:00.483Z,95593.13
2023-02-13T06:09:05.165Z,95594.31
2023-02-13T06:14:06.789Z,95593.25
2023-02-13T06:19:08.436Z,95594.56
2023-02-13T06:24:11.364Z,95596.81
2023-02-13T06:29:12.856Z,95589.56
2023-02-13T06:34:14.487Z,95592.28
2023-02-13T06:39:17.354Z,95588.19
2023-02-13T06:44:18.944Z,95597.59
2023-02-13T06:49:20.517Z,95592.06
2023-02-13T06:54:33.919Z,95597.44
2023-02-13T06:59:43.095Z,95598.50
2023-02-13T07:04:44.663Z,95599.41
2023-02-13T07:09:47.624Z,95602.50
2023-02-13T07:14:49.114Z,95603.66
2023-02-13T07:19:50.624Z,95598.94
2023-02-13T07:24:53.532Z,95615.44
2023-02-13T07:29:55.502Z,95618.03
2023-02-13T07:35:02.058Z,95612.59
2023-02-13T07:40:07.181Z,95618.78
2023-02-13T07:45:09.625Z,95625.16
2023-02-13T07:50:12.112Z,95636.56
2023-02-13T07:55:15.083Z,95636.75
2023-02-13T08:00:18.453Z,95644.53
2023-02-13T08:05:20.046Z,95640.03
2023-02-13T08:10:28.934Z,95636.22
2023-02-13T08:15:30.653Z,95641.69
2023-02-13T08:20:32.703Z,95646.66
2023-02-13T08:25:37.167Z,95648.00
2023-02-13T08:30:38.771Z,95646.19
2023-02-13T08:35:40.393Z,95656.72
2023-02-13T08:40:43.449Z,95642.09
2023-02-13T08:45:45.157Z,95644.91
2023-02-13T08:50:46.739Z,95648.78
2023-02-13T08:55:53.624Z,95644.94
2023-02-13T09:00:55.285Z,95644.81
2023-02-13T09:05:59.394Z,95648.75
2023-02-13T09:11:04.300Z,95650.50
2023-02-13T09:16:08.218Z,95645.56
2023-02-13T09:21:12.618Z,95653.81
2023-02-13T09:26:16.168Z,95651.50
2023-02-13T09:31:19.615Z,95646.91
2023-02-13T09:36:23.476Z,95647.91
2023-02-13T09:41:29.427Z,95636.94
2023-02-13T09:46:34.287Z,95642.13
2023-02-13T09:51:35.986Z,95643.34
2023-02-13T09:56:51.834Z,95647.72
2023-02-13T10:02:02.907Z,95648.59
2023-02-13T10:07:18.494Z,95656.34
2023-02-13T10:12:37.767Z,95654.53
2023-02-13T10:17:42.785Z,95660.13
2023-02-13T10:22:51.112Z,95660.84
2023-02-13T10:27:58.509Z,95657.19
2023-02-13T10:33:05.696Z,95656.66
2023-02-13T10:38:16.197Z,95660.50
2023-02-13T10:43:21.118Z,95648.88
2023-02-13T10:48:44.857Z,95645.84
2023-02-13T10:54:02.889Z,95642.13
2023-02-13T10:59:27.375Z,95635.78
2023-02-13T11:04:30.249Z,95629.66
2023-02-13T11:09:38.044Z,95615.53
2023-02-13T11:14:54.291Z,95622.03
2023-02-13T11:19:57.960Z,95614.88
2023-02-13T11:25:03.284Z,95611.97
2023-02-13T11:30:31.143Z,95617.00
2023-02-13T11:35:34.404Z,95621.94
2023-02-13T11:40:37.315Z,95613.41
2023-02-13T11:45:40.304Z,95621.44
2023-02-13T11:50:42.522Z,95630.56
2023-02-13T11:55:45.989Z,95622.53
2023-02-13T12:00:49.158Z,95621.31
2023-02-13T12:06:01.417Z,95610.47
2023-02-13T12:11:07.577Z,95605.56
2023-02-13T12:16:29.976Z,95610.25
2023-02-13T12:21:49.515Z,95603.25
2023-02-13T12:26:58.361Z,95600.47
2023-02-13T12:32:15.578Z,95591.50
2023-02-13T12:37:32.533Z,95591.09
2023-02-13T12:42:47.410Z,95584.44
2023-02-13T12:48:03.875Z,95578.91
2023-02-13T12:53:26.900Z,95581.94
2023-02-13T12:58:48.237Z,95579.56
2023-02-13T13:04:05.030Z,95580.34
2023-02-13T13:09:23.300Z,95575.69
2023-02-13T13:14:35.737Z,95583.75
2023-02-13T13:19:45.190Z,95581.31
2023-02-13T13:24:56.340Z,95571.78
2023-02-13T13:30:02.985Z,95573.56
2023-02-13T13:35:12.178Z,95575.69
2023-02-13T13:40:29.226Z,95574.84
2023-02-13T13:45:42.814Z,95566.66
2023-02-13T13:50:46.264Z,95563.59
2023-02-13T13:56:07.516Z,95564.13
2023-02-13T14:01:27.315Z,95566.63
2023-02-13T14:07:05.049Z,95566.78
2023-02-13T14:12:37.094Z,95576.50
2023-02-13T14:17:54.683Z,95582.69
2023-02-13T14:23:07.235Z,95586.31
2023-02-13T14:28:21.003Z,95588.72
2023-02-13T14:33:27.324Z,95586.41
2023-02-13T14:38:30.896Z,95579.94
2023-02-13T14:43:47.702Z,95581.75
2023-02-13T14:48:55.367Z,95578.19
2023-02-13T14:54:01.416Z,95589.25
2023-02-13T14:59:13.655Z,95584.16
2023-02-13T15:04:25.831Z,95577.75
2023-02-13T15:09:35.094Z,95577.13
2023-02-13T15:14:37.176Z,95568.16
2023-02-13T15:19:44.569Z,95571.03
2023-02-13T15:24:49.498Z,95560.53
2023-02-13T15:29:57.305Z,95563.75
2023-02-13T15:34:59.692Z,95564.50
2023-02-13T15:40:25.730Z,95561.72
2023-02-13T15:45:29.418Z,95566.28
2023-02-13T15:50:33.962Z,95560.47
2023-02-13T15:55:36.918Z,95561.84
2023-02-13T16:00:42.341Z,95568.53
2023-02-13T16:05:46.855Z,95569.75
2023-02-13T16:10:49.959Z,95560.34
2023-02-13T16:15:51.566Z,95568.22
2023-02-13T16:20:54.720Z,95557.09
2023-02-13T16:26:03.724Z,95555.34
2023-02-13T16:31:05.905Z,95553.44
2023-02-13T16:36:18.587Z,95551.09
2023-02-13T16:41:32.805Z,95562.84
2023-02-13T16:46:36.872Z,95556.19
2023-02-13T16:51:50.304Z,95556.41
2023-02-13T16:56:54.850Z,95571.47
2023-02-13T17:02:13.502Z,95569.56
2023-02-13T17:07:20.223Z,95578.44
2023-02-13T17:12:22.201Z,95582.53
2023-02-13T17:17:23.832Z,95580.50
2023-02-13T17:22:32.740Z,95571.91
2023-02-13T17:27:34.781Z,95577.22
2023-02-13T17:32:36.784Z,95576.28
2023-02-13T17:37:40.864Z,95576.50
2023-02-13T17:42:44.310Z,95577.72
2023-02-13T17:47:46.448Z,95575.66
2023-02-13T17:52:49.638Z,95577.72
2023-02-13T17:57:53.125Z,95575.97
2023-02-13T18:02:55.858Z,95574.72
2023-02-13T18:07:58.776Z,95582.19
2023-02-13T18:13:00.676Z,95589.03
2023-02-13T18:18:02.314Z,95582.59
2023-02-13T18:23:05.173Z,95578.78
2023-02-13T18:28:06.725Z,95573.19
2023-02-13T18:33:08.368Z,95575.75
2023-02-13T18:38:11.252Z,95566.59
2023-02-13T18:43:13.000Z,95574.47
2023-02-13T18:48:14.565Z,95574.16
2023-02-13T18:53:17.523Z,95586.50
2023-02-13T18:58:19.072Z,95587.72
2023-02-13T19:03:20.614Z,95596.09
2023-02-13T19:08:23.482Z,95592.47
2023-02-13T19:13:24.958Z,95592.81
2023-02-13T19:18:26.544Z,95580.53
2023-02-13T19:23:29.852Z,95584.25
2023-02-13T19:28:31.424Z,95575.78
2023-02-13T19:33:33.273Z,95574.16
2023-02-13T19:38:36.607Z,95572.00
2023-02-13T19:43:38.428Z,95570.91
2023-02-13T19:48:40.106Z,95567.78
2023-02-13T19:53:43.423Z,95569.63
2023-02-13T19:58:44.947Z,95573.25
2023-02-13T20:03:47.360Z,95562.56
2023-02-13T20:08:50.831Z,95567.41
2023-02-13T20:13:53.920Z,95561.72
2023-02-13T20:18:55.422Z,95570.53
2023-02-13T20:23:58.366Z,95571.19
2023-02-13T20:29:00.439Z,95577.06
2023-02-13T20:34:02.239Z,95572.59
2023-02-13T20:39:06.855Z,95568.72
2023-02-13T20:44:11.594Z,95571.56
2023-02-13T20:49:13.123Z,95576.03
2023-02-13T20:54:16.021Z,95564.09
2023-02-13T20:59:17.516Z,95557.50
2023-02-13T21:04:19.228Z,95555.53
2023-02-13T21:09:22.213Z,95554.66
2023-02-13T21:14:23.712Z,95545.56
2023-02-13T21:19:25.325Z,95545.59
2023-02-13T21:24:28.218Z,95536.66
2023-02-13T21:29:29.852Z,95544.09
2023-02-13T21:34:31.370Z,95538.84
2023-02-13T21:39:34.308Z,95537.81
2023-02-13T21:44:35.833Z,95528.06
2023-02-13T21:49:37.412Z,95537.63
2023-02-13T21:54:40.357Z,95541.97
2023-02-13T21:59:41.888Z,95534.22
2023-02-13T22:04:43.488Z,95529.88
2023-02-13T22:09:46.414Z,95530.91
2023-02-13T22:14:47.964Z,95532.09
2023-02-13T22:19:49.535Z,95531.28
2023-02-13T22:24:52.428Z,95537.13
2023-02-13T22:29:53.990Z,95544.94
2023-02-13T22:34:55.594Z,95538.03
2023-02-13T22:39:58.493Z,95534.81
2023-02-13T22:45:00.063Z,95528.38
2023-02-13T22:50:01.645Z,95529.56
2023-02-13T22:55:05.057Z,95532.81
2023-02-13T23:00:09.663Z,95536.66
2023-02-13T23:05:11.206Z,95530.16
2023-02-13T23:10:14.132Z,95525.00
2023-02-13T23:15:15.809Z,95522.59
2023-02-13T23:20:18.164Z,95529.19
2023-02-13T23:25:21.842Z,95518.53
2023-02-13T23:30:24.363Z,95504.63
2023-02-13T23:35:26.873Z,95510.00
2023-02-13T23:40:29.892Z,95512.19
2023-02-13T23:45:31.452Z,95496.00
2023-02-13T23:50:33.136Z,95490.75
2023-02-13T23:55:36.002Z,95482.59
